Weather at Dream Fly Airfield

Public forecast

Using degrees Celsius for public forecast. Weather courtesy of forecast.io.

Closest aviation weather report (METAR) to Dream Fly Airfield

Closest report is Aviano Air Base, 15.4 nm (28.5 km) ENE.

2024/07/17 12:55 (retrieved 34 minutes ago)

LIPA 171255Z 07005KT 9999 FEW070 32/22 Q1014 RMK SCT SCT170 VIS MIN 9999 WIND THR05/////KT WIND THR23 /////KT A2996 BLU

Closest aviation forecast (TAF) to Dream Fly Airfield

Closest forecast is Treviso Antonio Canova Airport, 17.1 nm (31.7 km) S.

2024/07/17 12:00 (retrieved 1 hour ago)

TAF LIPH 171100Z 1712/1812 05006KT 9999 FEW060